Time;durP1;ratioP1;P1;durP2;ratioP2;P2;SDS_P1;SDS_P2;PMS_P1;PMS_P2;Temp;Humidity;BMP_temperature;BMP_pressure;BME280_temperature;BME280_humidity;BME280_pressure;Samples;Min_cycle;Max_cycle;Signal;HPM_P1;HPM_P2
2021/09/19 00:00:28;;;;;;;4.97;4.40;;;17.60;99.90;;;;;;5077943;28;20212;-62
2021/09/19 00:02:54;;;;;;;6.27;4.73;;;17.60;99.90;;;;;;5095881;28;20181;-64
2021/09/19 00:05:19;;;;;;;5.77;5.13;;;17.60;99.90;;;;;;5096112;28;20228;-63
2021/09/19 00:07:45;;;;;;;4.83;4.43;;;17.50;99.90;;;;;;5095728;28;20171;-63
2021/09/19 00:10:14;;;;;;;5.60;4.60;;;17.50;99.90;;;;;;5096072;28;20262;-63
2021/09/19 00:12:40;;;;;;;7.07;5.00;;;17.40;99.90;;;;;;5095603;28;20209;-63
2021/09/19 00:15:08;;;;;;;6.00;5.07;;;17.40;99.90;;;;;;5077560;28;20456;-62
2021/09/19 00:17:34;;;;;;;6.07;4.80;;;17.40;99.90;;;;;;5095544;28;20480;-62
2021/09/19 00:20:00;;;;;;;5.50;4.50;;;17.30;99.90;;;;;;5095814;28;20441;-63
2021/09/19 00:22:25;;;;;;;7.13;5.50;;;17.30;99.90;;;;;;5095466;28;20480;-64
2021/09/19 00:24:51;;;;;;;5.67;4.77;;;17.20;99.90;;;;;;5095661;28;20203;-62
2021/09/19 00:27:17;;;;;;;5.57;5.07;;;17.20;99.90;;;;;;5077198;28;20168;-64
2021/09/19 00:29:43;;;;;;;5.50;4.93;;;17.10;99.90;;;;;;5095509;28;20203;-65
2021/09/19 00:32:09;;;;;;;5.57;4.60;;;17.10;99.90;;;;;;5095235;28;20389;-64
2021/09/19 00:34:34;;;;;;;4.53;3.80;;;17.00;99.90;;;;;;5095485;28;20207;-64
2021/09/19 00:37:00;;;;;;;5.13;4.63;;;17.00;99.90;;;;;;5076903;28;20204;-64
2021/09/19 00:39:25;;;;;;;5.50;4.83;;;17.00;99.90;;;;;;5095264;28;20257;-62
2021/09/19 00:41:51;;;;;;;6.40;4.73;;;16.90;99.90;;;;;;5095072;28;20168;-63
2021/09/19 00:44:23;;;;;;;6.13;4.73;;;16.80;99.90;;;;;;5094117;28;20681;-63
2021/09/19 00:46:48;;;;;;;7.37;5.03;;;16.80;99.90;;;;;;5076838;28;20285;-64
2021/09/19 00:49:14;;;;;;;6.30;5.27;;;16.80;99.90;;;;;;5095089;28;20476;-62
2021/09/19 00:51:43;;;;;;;7.20;4.90;;;16.80;99.90;;;;;;5094888;28;20543;-63
2021/09/19 00:54:10;;;;;;;6.17;5.57;;;16.70;99.90;;;;;;5094889;28;20669;-62
2021/09/19 00:56:38;;;;;;;5.57;5.00;;;16.80;99.90;;;;;;5094694;28;20441;-63
2021/09/19 00:59:05;;;;;;;5.53;4.53;;;16.70;99.90;;;;;;5094739;28;20459;-63
2021/09/19 01:01:31;;;;;;;9.70;4.73;;;16.70;99.90;;;;;;5094653;28;20408;-64
2021/09/19 01:03:59;;;;;;;6.13;5.33;;;16.60;99.90;;;;;;5076342;28;20973;-64
2021/09/19 01:06:25;;;;;;;5.70;4.93;;;16.60;99.90;;;;;;5094676;28;20424;-63
2021/09/19 01:08:51;;;;;;;6.37;5.10;;;16.60;99.90;;;;;;5076245;28;20794;-63
2021/09/19 01:11:17;;;;;;;6.57;5.53;;;16.60;99.90;;;;;;5094525;28;20505;-64
2021/09/19 01:13:45;;;;;;;6.30;5.27;;;16.60;99.90;;;;;;5094402;28;20460;-62
2021/09/19 01:16:13;;;;;;;8.80;5.77;;;16.50;99.90;;;;;;5076158;28;20468;-62
2021/09/19 01:18:40;;;;;;;7.17;5.60;;;16.50;99.90;;;;;;5094280;28;20499;-63
2021/09/19 01:21:07;;;;;;;9.53;5.90;;;16.40;99.90;;;;;;5094501;28;20409;-63
2021/09/19 01:23:33;;;;;;;7.27;5.97;;;16.40;99.90;;;;;;5076032;28;20437;-63
2021/09/19 01:26:00;;;;;;;5.90;5.30;;;16.40;99.90;;;;;;5094271;28;20387;-63
2021/09/19 01:28:27;;;;;;;9.20;5.50;;;16.40;99.90;;;;;;5076006;28;20409;-62
2021/09/19 01:30:52;;;;;;;6.77;6.00;;;16.30;99.90;;;;;;5094205;28;20401;-63
2021/09/19 01:33:18;;;;;;;6.13;5.50;;;16.30;99.90;;;;;;5093971;28;20410;-64
2021/09/19 01:35:44;;;;;;;7.60;5.90;;;16.30;99.90;;;;;;5094152;28;20657;-64
2021/09/19 01:38:09;;;;;;;8.27;5.90;;;16.20;99.90;;;;;;5093977;28;20673;-62
2021/09/19 01:40:35;;;;;;;7.10;5.90;;;16.20;99.90;;;;;;5094445;28;20204;-63
2021/09/19 01:43:01;;;;;;;9.23;6.10;;;16.10;99.90;;;;;;5094016;28;20255;-63
2021/09/19 01:45:28;;;;;;;9.23;5.77;;;16.00;99.90;;;;;;5094433;28;20231;-62
2021/09/19 01:47:54;;;;;;;6.50;5.70;;;16.00;99.90;;;;;;5093900;28;20786;-63
2021/09/19 01:50:21;;;;;;;7.10;6.40;;;15.90;99.90;;;;;;5094338;28;20445;-63
2021/09/19 01:52:47;;;;;;;7.77;6.20;;;15.90;99.90;;;;;;5093856;28;20388;-63
2021/09/19 01:55:13;;;;;;;11.73;5.80;;;15.80;99.90;;;;;;5094029;28;20478;-62
2021/09/19 01:57:39;;;;;;;6.60;6.00;;;15.80;99.90;;;;;;5075674;28;20484;-64
2021/09/19 02:00:06;;;;;;;7.90;6.33;;;15.70;99.90;;;;;;5075950;28;20442;-62
2021/09/19 02:02:36;;;;;;;6.30;5.30;;;15.60;99.90;;;;;;5075645;28;20173;-63
2021/09/19 02:05:04;;;;;;;7.30;6.40;;;15.60;99.90;;;;;;5094053;28;20448;-63
2021/09/19 02:07:30;;;;;;;7.10;6.40;;;15.50;99.90;;;;;;5075660;28;20488;-63
2021/09/19 02:09:56;;;;;;;7.87;5.80;;;15.40;99.90;;;;;;5094000;28;20445;-63
2021/09/19 02:12:22;;;;;;;12.10;7.00;;;15.30;99.90;;;;;;5093807;28;20431;-63
2021/09/19 02:14:47;;;;;;;7.07;6.37;;;15.20;99.90;;;;;;5093870;28;20204;-63
2021/09/19 02:17:13;;;;;;;8.00;6.70;;;15.10;99.90;;;;;;5075498;28;20662;-64
2021/09/19 02:19:40;;;;;;;6.60;5.60;;;15.00;99.90;;;;;;5093857;28;20203;-64
2021/09/19 02:22:08;;;;;;;6.73;5.93;;;14.90;99.90;;;;;;5093614;28;20490;-63
2021/09/19 02:24:34;;;;;;;8.00;5.73;;;14.80;99.90;;;;;;5093823;28;20440;-62
2021/09/19 02:26:59;;;;;;;6.87;6.10;;;14.70;99.90;;;;;;5075766;28;20806;-63
2021/09/19 02:29:25;;;;;;;7.90;6.50;;;14.70;99.90;;;;;;5093747;28;20440;-62
2021/09/19 02:31:50;;;;;;;8.40;6.30;;;14.70;99.90;;;;;;5093597;28;20243;-62
2021/09/19 02:34:16;;;;;;;7.20;6.40;;;14.70;99.90;;;;;;5093583;28;20563;-63
2021/09/19 02:36:42;;;;;;;8.57;6.60;;;14.70;99.90;;;;;;5093409;28;20172;-63
2021/09/19 02:39:08;;;;;;;7.67;6.10;;;14.70;99.90;;;;;;5093658;28;20677;-63
2021/09/19 02:41:35;;;;;;;7.00;6.20;;;14.70;99.90;;;;;;5075356;28;20697;-62
2021/09/19 02:44:01;;;;;;;6.93;5.83;;;14.70;99.90;;;;;;5075186;28;20448;-62
2021/09/19 02:46:27;;;;;;;7.60;6.83;;;14.70;99.90;;;;;;5093411;28;20484;-62
2021/09/19 02:48:52;;;;;;;7.93;6.47;;;14.70;99.90;;;;;;5093419;28;20539;-62
2021/09/19 02:51:18;;;;;;;7.07;6.23;;;14.70;99.90;;;;;;5093354;28;20172;-65
2021/09/19 02:53:43;;;;;;;6.90;6.00;;;14.60;99.90;;;;;;5093309;28;20197;-63
2021/09/19 02:56:09;;;;;;;8.30;6.50;;;14.60;99.90;;;;;;5093358;28;20173;-63
2021/09/19 02:58:35;;;;;;;7.90;6.27;;;14.50;99.90;;;;;;5093170;28;20234;-64
2021/09/19 03:01:02;;;;;;;8.70;6.30;;;14.50;99.90;;;;;;5075165;28;20192;-62
2021/09/19 03:03:27;;;;;;;7.50;6.03;;;14.40;99.90;;;;;;5093058;28;20459;-64
2021/09/19 03:05:53;;;;;;;7.93;6.30;;;14.40;99.90;;;;;;5093218;28;20368;-62
2021/09/19 03:08:18;;;;;;;8.77;6.80;;;14.40;99.90;;;;;;5096260;28;20260;-63
2021/09/19 03:10:44;;;;;;;8.83;7.43;;;14.40;99.90;;;;;;5096788;28;20184;-63
2021/09/19 03:13:10;;;;;;;8.40;6.77;;;14.50;99.90;;;;;;5078677;28;20169;-64
2021/09/19 03:15:35;;;;;;;7.40;6.70;;;14.50;99.90;;;;;;5096916;28;20649;-62
2021/09/19 03:18:01;;;;;;;8.33;6.50;;;14.40;99.90;;;;;;5096611;28;20224;-63
2021/09/19 03:20:26;;;;;;;6.80;6.10;;;14.40;99.90;;;;;;5097088;28;20196;-63
2021/09/19 03:22:52;;;;;;;7.47;6.17;;;14.40;99.90;;;;;;5096598;28;20176;-62
2021/09/19 03:25:17;;;;;;;8.20;7.03;;;14.40;99.90;;;;;;5078288;28;20295;-62
2021/09/19 03:27:43;;;;;;;8.37;6.63;;;14.40;99.90;;;;;;5096523;28;20172;-63
2021/09/19 03:30:11;;;;;;;8.60;6.63;;;14.30;99.90;;;;;;5096846;28;20239;-63
2021/09/19 03:32:37;;;;;;;8.00;6.83;;;14.20;99.90;;;;;;5078329;28;20176;-62
2021/09/19 03:35:03;;;;;;;7.70;5.73;;;14.10;99.90;;;;;;5078242;28;20449;-62
2021/09/19 03:37:29;;;;;;;9.07;7.07;;;14.10;99.90;;;;;;5096286;28;20452;-63
2021/09/19 03:39:55;;;;;;;7.83;6.97;;;14.10;99.90;;;;;;5096530;28;20478;-64
2021/09/19 03:42:20;;;;;;;7.53;6.73;;;14.00;99.90;;;;;;5096263;28;20515;-63
2021/09/19 03:44:47;;;;;;;7.70;6.40;;;14.00;99.90;;;;;;5096440;28;20215;-62
2021/09/19 03:47:12;;;;;;;7.03;6.33;;;14.00;99.90;;;;;;5096161;28;20160;-64
2021/09/19 03:49:38;;;;;;;9.23;6.63;;;13.90;99.90;;;;;;5096274;28;20498;-62
2021/09/19 03:52:04;;;;;;;7.73;6.93;;;13.90;99.90;;;;;;5096011;28;20176;-64
2021/09/19 03:54:29;;;;;;;7.87;7.07;;;13.90;99.90;;;;;;5096267;28;20205;-62
2021/09/19 03:56:55;;;;;;;7.63;6.53;;;13.90;99.90;;;;;;5095889;28;20168;-62
2021/09/19 03:59:20;;;;;;;7.37;6.60;;;13.80;99.90;;;;;;5096169;28;20200;-62
2021/09/19 04:01:46;;;;;;;7.20;6.40;;;13.80;99.90;;;;;;5095830;28;20168;-63
2021/09/19 04:04:12;;;;;;;7.00;6.20;;;13.70;99.90;;;;;;5096009;28;20605;-62
2021/09/19 04:06:37;;;;;;;7.47;6.50;;;13.70;99.90;;;;;;5095785;28;20209;-63
2021/09/19 04:09:03;;;;;;;9.23;6.87;;;13.70;99.90;;;;;;5095819;28;20321;-62
2021/09/19 04:11:28;;;;;;;7.33;6.63;;;13.70;99.90;;;;;;5095851;28;20698;-63
2021/09/19 04:13:54;;;;;;;7.50;6.50;;;13.70;99.90;;;;;;5095706;28;20204;-62
2021/09/19 04:16:19;;;;;;;9.63;8.13;;;13.70;99.90;;;;;;5077312;28;20307;-62
2021/09/19 04:18:45;;;;;;;11.13;7.57;;;13.70;99.90;;;;;;5095194;28;20224;-62
2021/09/19 04:21:11;;;;;;;8.10;6.50;;;13.80;99.90;;;;;;5077386;28;20177;-62
2021/09/19 04:23:36;;;;;;;8.60;7.00;;;13.70;99.90;;;;;;5095341;28;20192;-64
2021/09/19 04:26:02;;;;;;;7.73;6.93;;;13.70;99.90;;;;;;5077201;28;20637;-62
2021/09/19 04:28:27;;;;;;;8.13;6.70;;;13.70;99.90;;;;;;5077098;28;20184;-63
2021/09/19 04:30:53;;;;;;;8.23;6.80;;;13.70;99.90;;;;;;5095287;28;20172;-63
2021/09/19 04:33:19;;;;;;;10.80;7.70;;;13.70;99.90;;;;;;5095114;28;20264;-63
2021/09/19 04:35:44;;;;;;;8.87;7.23;;;13.70;99.90;;;;;;5095234;28;20548;-62
2021/09/19 04:38:10;;;;;;;6.70;6.03;;;13.70;99.90;;;;;;5076963;28;20624;-62
2021/09/19 04:40:35;;;;;;;7.90;6.97;;;13.70;99.90;;;;;;5094997;28;20616;-63
2021/09/19 04:43:01;;;;;;;11.23;7.53;;;13.80;99.90;;;;;;5095042;28;20172;-63
2021/09/19 04:45:26;;;;;;;7.60;6.70;;;13.80;99.90;;;;;;5095477;28;20200;-62
2021/09/19 04:47:52;;;;;;;8.57;7.30;;;13.80;99.90;;;;;;5076780;28;20176;-62
2021/09/19 04:50:18;;;;;;;8.60;7.40;;;13.80;99.90;;;;;;5095440;28;20204;-62
2021/09/19 04:52:43;;;;;;;8.50;6.30;;;13.80;99.90;;;;;;5094853;28;20168;-62
2021/09/19 04:55:09;;;;;;;6.93;6.23;;;13.90;99.90;;;;;;5095186;28;20204;-62
2021/09/19 04:57:35;;;;;;;7.70;6.83;;;13.90;99.90;;;;;;5094794;28;20218;-63
2021/09/19 05:00:02;;;;;;;8.20;7.40;;;13.90;99.90;;;;;;5076650;28;20535;-64
2021/09/19 05:02:28;;;;;;;8.23;6.93;;;14.00;99.90;;;;;;5094754;28;20168;-62
2021/09/19 05:04:53;;;;;;;8.90;7.13;;;14.00;99.90;;;;;;5094863;28;20475;-62
2021/09/19 05:07:19;;;;;;;8.90;6.43;;;14.10;99.90;;;;;;5094735;28;20187;-63
2021/09/19 05:09:44;;;;;;;8.47;6.20;;;14.10;99.90;;;;;;5076364;28;20701;-62
2021/09/19 05:12:10;;;;;;;7.53;6.83;;;14.10;99.90;;;;;;5094471;28;20646;-63
2021/09/19 05:14:35;;;;;;;8.33;6.77;;;14.10;99.90;;;;;;5094611;28;20207;-64
2021/09/19 05:17:01;;;;;;;8.03;6.97;;;14.20;99.90;;;;;;5094275;28;20224;-64
2021/09/19 05:19:27;;;;;;;8.30;6.87;;;14.20;99.90;;;;;;5076344;28;20261;-62
2021/09/19 05:21:52;;;;;;;6.80;6.17;;;14.20;99.90;;;;;;5094404;28;20410;-63
2021/09/19 05:24:18;;;;;;;9.07;7.17;;;14.20;99.90;;;;;;5094334;28;20216;-62
2021/09/19 05:26:44;;;;;;;7.97;6.23;;;14.20;99.90;;;;;;5094262;28;20369;-63
2021/09/19 05:29:09;;;;;;;7.53;6.27;;;14.30;99.90;;;;;;5094039;28;20669;-62
2021/09/19 05:31:35;;;;;;;8.17;6.47;;;14.30;99.90;;;;;;5076045;28;20743;-62
2021/09/19 05:34:03;;;;;;;8.20;6.63;;;14.40;99.90;;;;;;5076020;28;20295;-62
2021/09/19 05:36:29;;;;;;;7.10;6.33;;;14.40;99.90;;;;;;5094121;28;20165;-62
2021/09/19 05:38:55;;;;;;;8.17;6.70;;;14.50;99.90;;;;;;5093782;28;21099;-62
2021/09/19 05:41:20;;;;;;;7.80;6.73;;;14.60;99.90;;;;;;5075918;28;21001;-64
2021/09/19 05:43:46;;;;;;;6.83;5.37;;;14.60;99.90;;;;;;5075753;28;20210;-62
2021/09/19 05:46:12;;;;;;;8.43;7.20;;;14.70;99.90;;;;;;5094110;28;20657;-64
2021/09/19 05:48:38;;;;;;;6.50;5.90;;;14.70;99.90;;;;;;5093810;28;20203;-62
2021/09/19 05:51:04;;;;;;;7.17;5.90;;;14.80;99.90;;;;;;5093920;28;20541;-63
2021/09/19 05:53:30;;;;;;;6.20;5.60;;;14.90;99.90;;;;;;5075748;28;20405;-62
2021/09/19 05:55:55;;;;;;;6.40;5.80;;;15.00;99.90;;;;;;5093883;28;20401;-63
2021/09/19 05:58:21;;;;;;;7.57;6.50;;;15.10;99.90;;;;;;5093773;28;20211;-63
2021/09/19 06:00:47;;;;;;;7.07;5.87;;;15.20;99.90;;;;;;5093824;28;20168;-62
2021/09/19 06:03:12;;;;;;;6.40;5.80;;;15.30;99.90;;;;;;5093870;28;20187;-62
2021/09/19 06:05:38;;;;;;;7.40;6.07;;;15.40;99.90;;;;;;5094319;28;20541;-64
2021/09/19 06:08:04;;;;;;;8.00;6.13;;;15.40;99.90;;;;;;5093750;28;20172;-63
2021/09/19 06:10:30;;;;;;;6.53;5.93;;;15.50;99.90;;;;;;5094234;28;20226;-64
2021/09/19 06:12:55;;;;;;;7.10;6.40;;;15.60;99.90;;;;;;5093782;28;20389;-63
2021/09/19 06:15:21;;;;;;;6.40;5.80;;;15.70;99.90;;;;;;5075483;28;20689;-64
2021/09/19 06:17:46;;;;;;;6.30;5.70;;;15.80;99.90;;;;;;5093632;28;20267;-63
2021/09/19 06:20:12;;;;;;;6.80;6.20;;;15.80;99.90;;;;;;5094009;28;20201;-63
2021/09/19 06:22:38;;;;;;;6.67;6.00;;;15.90;99.90;;;;;;5075580;28;20172;-64
2021/09/19 06:25:04;;;;;;;6.87;6.17;;;16.00;99.90;;;;;;5093865;28;20290;-62
2021/09/19 06:27:29;;;;;;;6.67;5.70;;;16.20;99.90;;;;;;5075503;28;20179;-64
2021/09/19 06:29:55;;;;;;;5.87;5.33;;;16.20;99.90;;;;;;5074527;28;21020;-63
2021/09/19 06:32:20;;;;;;;5.90;5.13;;;16.30;99.90;;;;;;5072045;28;20184;-63
2021/09/19 06:34:46;;;;;;;5.77;5.27;;;16.40;99.90;;;;;;5072351;28;20280;-63
2021/09/19 06:37:12;;;;;;;5.60;5.10;;;16.40;99.90;;;;;;5055326;28;20217;-62
2021/09/19 06:39:37;;;;;;;6.50;5.83;;;16.50;99.90;;;;;;5073444;28;20212;-63
2021/09/19 06:42:03;;;;;;;5.97;5.37;;;16.60;99.90;;;;;;5072712;28;20544;-65
2021/09/19 06:44:29;;;;;;;6.40;5.80;;;16.70;99.90;;;;;;5075259;28;20201;-65
2021/09/19 06:46:56;;;;;;;6.80;5.00;;;16.80;99.90;;;;;;5074892;28;20406;-63
2021/09/19 06:49:23;;;;;;;6.03;5.43;;;16.90;99.90;;;;;;5074972;28;20897;-63
2021/09/19 06:51:49;;;;;;;5.43;4.93;;;17.10;99.90;;;;;;5074838;28;20891;-62
2021/09/19 06:54:15;;;;;;;5.13;4.53;;;17.20;99.90;;;;;;5074745;28;20445;-63
2021/09/19 06:56:40;;;;;;;6.10;5.37;;;17.30;99.90;;;;;;5075838;28;20694;-63
2021/09/19 06:59:06;;;;;;;5.43;4.93;;;17.40;99.90;;;;;;5076847;28;20511;-63
2021/09/19 07:01:31;;;;;;;5.37;4.90;;;17.50;99.90;;;;;;5076787;28;20174;-64
2021/09/19 07:03:57;;;;;;;4.93;4.50;;;17.60;99.90;;;;;;5058695;28;20229;-63
2021/09/19 07:06:23;;;;;;;4.80;4.40;;;17.70;99.90;;;;;;5076716;28;20181;-63
2021/09/19 07:08:48;;;;;;;5.53;4.80;;;17.70;99.90;;;;;;5076528;28;20279;-63
2021/09/19 07:11:14;;;;;;;5.40;4.27;;;17.80;99.90;;;;;;5076554;28;20211;-64
2021/09/19 07:13:40;;;;;;;4.90;4.50;;;17.90;99.90;;;;;;5076466;28;20212;-62
2021/09/19 07:16:06;;;;;;;6.13;5.07;;;18.00;99.90;;;;;;5076339;28;20859;-63
2021/09/19 07:18:31;;;;;;;4.53;4.17;;;18.10;99.90;;;;;;5058458;28;20266;-63
2021/09/19 07:20:57;;;;;;;5.50;5.00;;;18.20;99.90;;;;;;5076377;28;20219;-63
2021/09/19 07:23:24;;;;;;;4.80;4.40;;;18.30;99.90;;;;;;5076177;28;20208;-63
2021/09/19 07:25:50;;;;;;;5.00;4.50;;;18.40;99.90;;;;;;5076398;28;20625;-63
2021/09/19 07:28:16;;;;;;;4.50;4.10;;;18.50;99.90;;;;;;5076172;28;20402;-63
2021/09/19 07:30:42;;;;;;;4.27;3.90;;;18.60;99.90;;;;;;5076189;28;20397;-63
2021/09/19 07:33:08;;;;;;;4.23;3.83;;;18.80;99.90;;;;;;5058246;28;20430;-64
2021/09/19 07:35:34;;;;;;;3.83;3.53;;;18.90;99.90;;;;;;5058356;28;20665;-63
2021/09/19 07:38:00;;;;;;;5.43;4.10;;;19.00;99.90;;;;;;5058132;28;20490;-63
2021/09/19 07:40:26;;;;;;;4.83;4.27;;;19.10;99.90;;;;;;5076539;28;20457;-63
2021/09/19 07:42:52;;;;;;;4.60;4.20;;;19.30;99.90;;;;;;5076112;28;20401;-64
2021/09/19 07:45:18;;;;;;;4.40;3.90;;;19.40;99.90;;;;;;5058119;28;20446;-63
2021/09/19 07:47:45;;;;;;;4.00;3.60;;;19.50;99.90;;;;;;5076012;28;20177;-64
2021/09/19 07:50:12;;;;;;;3.33;3.13;;;19.60;99.90;;;;;;5076300;28;20534;-64
2021/09/19 07:52:38;;;;;;;3.83;3.33;;;19.70;99.90;;;;;;5075295;28;20479;-64
2021/09/19 07:55:04;;;;;;;3.53;3.23;;;19.80;99.90;;;;;;5057692;28;20538;-63
2021/09/19 07:57:30;;;;;;;3.00;2.80;;;19.90;99.90;;;;;;5075702;28;20685;-63
2021/09/19 07:59:56;;;;;;;3.03;2.83;;;20.00;99.90;;;;;;5075972;28;20479;-63
2021/09/19 08:02:23;;;;;;;3.67;3.17;;;20.10;99.90;;;;;;5075756;28;20544;-63
2021/09/19 08:04:49;;;;;;;3.30;3.10;;;20.30;99.90;;;;;;5075850;28;21023;-63
2021/09/19 08:07:17;;;;;;;3.10;2.60;;;20.40;99.90;;;;;;5075652;28;20414;-63
2021/09/19 08:09:43;;;;;;;3.30;2.90;;;20.50;99.90;;;;;;5057539;28;20850;-63
2021/09/19 08:12:08;;;;;;;2.50;2.30;;;20.70;99.90;;;;;;5075475;28;20411;-64
2021/09/19 08:14:34;;;;;;;3.10;2.90;;;20.90;99.90;;;;;;5075683;28;20444;-63
2021/09/19 08:17:00;;;;;;;3.60;3.30;;;21.20;99.90;;;;;;5075182;28;20453;-63
2021/09/19 08:19:27;;;;;;;2.60;2.40;;;21.70;99.90;;;;;;5075617;28;20703;-63
2021/09/19 08:21:52;;;;;;;2.80;2.60;;;22.40;99.90;;;;;;5075262;28;20196;-64
2021/09/19 08:24:18;;;;;;;3.03;2.63;;;23.10;99.90;;;;;;5075401;28;20445;-63
2021/09/19 08:26:44;;;;;;;2.67;2.47;;;23.70;99.90;;;;;;5057257;28;20566;-63
2021/09/19 08:29:29;;;;;;;2.20;2.00;;;24.40;99.90;;;;;;5075092;28;20445;-63
2021/09/19 08:31:54;;;;;;;1.80;1.70;;;25.00;99.60;;;;;;5073798;28;20181;-63
2021/09/19 08:34:20;;;;;;;2.00;1.90;;;25.80;98.60;;;;;;5057240;28;21011;-63
2021/09/19 08:36:46;;;;;;;2.10;2.00;;;26.50;97.60;;;;;;5057055;28;20175;-64
2021/09/19 08:39:12;;;;;;;2.03;1.83;;;27.20;96.30;;;;;;5057030;28;20253;-63
2021/09/19 08:41:37;;;;;;;2.47;2.27;;;27.80;94.90;;;;;;5074892;28;20294;-63
2021/09/19 08:44:04;;;;;;;2.27;2.17;;;27.90;94.00;;;;;;5056822;28;20200;-64
2021/09/19 08:46:30;;;;;;;2.80;2.60;;;27.70;93.70;;;;;;5057060;28;20533;-64
2021/09/19 08:48:57;;;;;;;2.67;2.47;;;27.10;93.90;;;;;;5056739;28;20452;-63
2021/09/19 08:51:22;;;;;;;2.47;2.27;;;26.60;94.20;;;;;;5100619;28;20835;-65
2021/09/19 08:53:48;;;;;;;2.13;2.03;;;26.10;94.50;;;;;;5113027;28;21127;-63
2021/09/19 08:56:25;;;;;;;3.20;3.00;;;25.70;95.20;;;;;;5094747;28;20172;-63
2021/09/19 08:58:51;;;;;;;2.20;2.10;;;25.30;95.40;;;;;;5113180;28;20705;-63
2021/09/19 09:01:18;;;;;;;2.70;2.50;;;25.00;95.80;;;;;;5094802;28;20533;-63
2021/09/19 09:03:45;;;;;;;2.70;2.50;;;24.70;96.20;;;;;;5112559;28;20535;-63
2021/09/19 09:06:14;;;;;;;2.37;2.17;;;24.50;96.30;;;;;;5113151;28;20168;-63
2021/09/19 09:08:40;;;;;;;2.90;2.70;;;24.30;96.50;;;;;;5113911;28;20449;-64
2021/09/19 09:11:07;;;;;;;2.70;2.50;;;24.10;96.50;;;;;;5112824;28;20487;-65
2021/09/19 09:13:38;;;;;;;2.30;2.20;;;24.00;96.70;;;;;;5094317;28;20436;-63
2021/09/19 09:16:15;;;;;;;2.70;2.50;;;23.80;96.30;;;;;;5112845;28;20497;-63
2021/09/19 09:18:45;;;;;;;2.20;2.10;;;23.70;96.70;;;;;;5112614;28;20467;-64
2021/09/19 09:21:17;;;;;;;2.63;2.43;;;23.60;96.80;;;;;;5112688;28;20408;-66
2021/09/19 09:23:48;;;;;;;2.00;1.90;;;23.50;97.00;;;;;;5082120;28;20794;-63
2021/09/19 09:26:28;;;;;;;2.17;1.90;;;23.40;96.90;;;;;;5054807;28;20796;-64
2021/09/19 09:29:14;;;;;;;1.70;1.60;;;23.30;96.70;;;;;;5073066;28;20521;-63
2021/09/19 09:31:46;;;;;;;2.73;2.53;;;23.20;96.60;;;;;;5055630;28;20472;-64
2021/09/19 09:34:15;;;;;;;1.90;1.80;;;23.20;96.90;;;;;;5074106;28;20441;-63
2021/09/19 09:36:48;;;;;;;2.50;2.30;;;23.20;96.90;;;;;;5055757;28;20429;-65
2021/09/19 09:39:35;;;;;;;2.23;2.03;;;23.10;97.10;;;;;;5074034;28;20512;-63
2021/09/19 09:42:06;;;;;;;2.87;2.20;;;23.10;96.60;;;;;;5057524;28;20445;-63
2021/09/19 09:44:43;;;;;;;2.47;2.27;;;23.10;96.50;;;;;;5073900;28;20465;-63
2021/09/19 09:47:21;;;;;;;3.23;2.47;;;23.10;96.70;;;;;;5073800;28;20497;-63
2021/09/19 09:49:57;;;;;;;2.43;2.00;;;23.10;96.80;;;;;;5055881;28;20450;-63
2021/09/19 09:52:28;;;;;;;2.40;2.27;;;23.10;96.70;;;;;;5073883;28;20394;-65
2021/09/19 09:54:54;;;;;;;3.00;2.80;;;23.10;96.70;;;;;;5074017;28;20445;-63
2021/09/19 09:57:36;;;;;;;2.53;2.30;;;23.10;96.70;;;;;;5055671;28;20468;-65
2021/09/19 10:00:05;;;;;;;3.70;2.53;;;23.10;96.70;;;;;;5074022;28;20790;-63
2021/09/19 10:02:33;;;;;;;2.77;2.57;;;23.10;96.60;;;;;;5073654;28;20410;-63
2021/09/19 10:04:59;;;;;;;2.47;2.27;;;23.10;96.70;;;;;;5073869;28;20463;-64
2021/09/19 10:07:25;;;;;;;3.67;2.17;;;23.10;97.10;;;;;;5073584;28;20449;-63
2021/09/19 10:09:52;;;;;;;2.40;2.30;;;23.10;97.00;;;;;;5073752;28;20792;-63
2021/09/19 10:12:21;;;;;;;2.20;2.00;;;23.20;97.10;;;;;;5073676;28;20394;-63
2021/09/19 10:14:54;;;;;;;2.70;2.50;;;23.20;96.80;;;;;;5073324;28;20462;-63
2021/09/19 10:17:21;;;;;;;2.30;2.10;;;23.20;96.70;;;;;;5077036;28;20955;-63
2021/09/19 10:19:48;;;;;;;2.20;2.00;;;23.20;96.70;;;;;;5077822;28;20436;-63
2021/09/19 10:22:42;;;;;;;1.90;1.80;;;23.30;96.50;;;;;;5077687;28;20455;-65
2021/09/19 10:25:20;;;;;;;2.03;1.93;;;23.30;96.40;;;;;;5072459;28;20457;-63
2021/09/19 10:27:48;;;;;;;2.07;1.97;;;23.40;96.30;;;;;;5075941;28;20422;-65
2021/09/19 10:30:14;;;;;;;2.40;2.20;;;23.40;96.10;;;;;;5075874;28;20819;-63
2021/09/19 10:32:46;;;;;;;2.90;2.70;;;23.40;96.00;;;;;;5075521;28;20405;-63
2021/09/19 10:35:18;;;;;;;2.53;2.07;;;23.30;96.20;;;;;;5075631;28;20209;-65
2021/09/19 10:37:47;;;;;;;2.87;2.60;;;23.30;96.40;;;;;;5075300;28;20454;-64
2021/09/19 10:40:12;;;;;;;2.13;2.03;;;23.30;96.30;;;;;;5075201;28;20477;-63
2021/09/19 10:42:40;;;;;;;2.23;2.03;;;23.40;96.60;;;;;;5076336;28;20448;-65
2021/09/19 10:45:11;;;;;;;2.67;2.47;;;23.40;96.20;;;;;;5075842;28;20199;-63
2021/09/19 10:48:02;;;;;;;2.67;2.47;;;23.40;96.00;;;;;;5074988;28;20417;-64
2021/09/19 10:50:36;;;;;;;2.37;2.17;;;23.50;95.80;;;;;;5051862;28;20452;-63
2021/09/19 10:53:23;;;;;;;2.53;2.33;;;23.50;95.60;;;;;;5074804;28;20402;-65
2021/09/19 10:55:59;;;;;;;2.07;1.93;;;23.50;95.80;;;;;;5056705;28;20508;-63
2021/09/19 10:58:33;;;;;;;2.53;2.33;;;23.50;95.80;;;;;;5056597;28;20981;-63
2021/09/19 11:01:09;;;;;;;2.40;2.20;;;23.50;95.90;;;;;;5058608;28;20414;-63
2021/09/19 11:03:34;;;;;;;2.43;2.30;;;23.60;95.90;;;;;;5076654;28;20444;-63
2021/09/19 11:06:00;;;;;;;2.90;2.50;;;23.60;95.60;;;;;;5076723;28;20410;-64
2021/09/19 11:08:39;;;;;;;2.40;2.20;;;23.60;95.40;;;;;;5076642;28;20184;-64
2021/09/19 11:11:08;;;;;;;2.53;2.33;;;23.70;95.40;;;;;;5076722;28;20190;-65
2021/09/19 11:13:53;;;;;;;2.60;2.40;;;23.70;95.40;;;;;;5076549;28;20434;-63
2021/09/19 11:16:21;;;;;;;2.27;2.17;;;23.80;95.40;;;;;;5058458;28;20488;-64
2021/09/19 11:18:50;;;;;;;2.13;2.03;;;23.80;95.20;;;;;;5076339;28;20477;-63
2021/09/19 11:21:18;;;;;;;2.50;2.03;;;23.80;95.30;;;;;;5076461;28;20758;-64
2021/09/19 11:23:46;;;;;;;2.70;2.50;;;23.80;95.40;;;;;;5058354;28;20801;-63
2021/09/19 11:26:21;;;;;;;3.80;2.60;;;23.80;95.20;;;;;;5058451;28;20497;-64
2021/09/19 11:28:50;;;;;;;2.67;2.47;;;23.80;95.20;;;;;;5075346;28;20842;-63
2021/09/19 11:31:20;;;;;;;2.60;2.40;;;23.90;95.30;;;;;;5076287;28;20408;-63
2021/09/19 11:33:47;;;;;;;2.60;2.40;;;23.90;95.10;;;;;;5076237;28;20785;-63
2021/09/19 11:36:19;;;;;;;2.10;2.00;;;24.00;95.00;;;;;;5076202;28;20498;-63
2021/09/19 11:38:46;;;;;;;2.87;2.63;;;24.00;94.80;;;;;;5058020;28;20470;-63
2021/09/19 11:41:13;;;;;;;5.60;3.10;;;24.00;95.00;;;;;;5076214;28;20936;-63
2021/09/19 11:43:40;;;;;;;2.77;2.57;;;24.10;94.80;;;;;;5058088;28;20483;-65
2021/09/19 11:46:11;;;;;;;2.77;2.57;;;24.10;94.60;;;;;;5075925;28;20464;-63
2021/09/19 11:48:39;;;;;;;3.03;2.70;;;24.10;94.70;;;;;;5075968;28;20438;-64
2021/09/19 11:51:05;;;;;;;2.87;2.67;;;24.10;94.50;;;;;;5075885;28;20443;-63
2021/09/19 11:53:31;;;;;;;2.10;2.00;;;24.10;94.70;;;;;;5075839;28;20981;-63
2021/09/19 11:55:57;;;;;;;2.50;2.30;;;24.10;94.40;;;;;;5075824;28;20411;-64
2021/09/19 11:58:23;;;;;;;2.73;2.53;;;24.10;94.50;;;;;;5075583;28;20197;-63
2021/09/19 12:00:54;;;;;;;4.30;2.87;;;24.10;94.70;;;;;;5075751;28;20452;-65
2021/09/19 12:03:20;;;;;;;2.87;2.50;;;24.20;94.40;;;;;;5057619;28;20580;-65
2021/09/19 12:05:54;;;;;;;2.87;2.67;;;24.20;94.50;;;;;;5075622;28;20423;-64
2021/09/19 12:08:21;;;;;;;3.30;3.00;;;24.20;94.50;;;;;;5075526;28;20812;-64
2021/09/19 12:10:48;;;;;;;3.00;2.70;;;24.20;94.90;;;;;;5057487;28;20415;-65
2021/09/19 12:13:33;;;;;;;7.30;3.40;;;24.20;95.00;;;;;;5075434;28;20443;-65
2021/09/19 12:16:10;;;;;;;2.43;2.23;;;24.30;94.80;;;;;;5057244;28;20480;-63
2021/09/19 12:18:41;;;;;;;2.70;2.50;;;24.30;93.90;;;;;;5075302;28;20497;-64
2021/09/19 12:21:13;;;;;;;2.50;2.30;;;24.30;93.60;;;;;;5075420;28;20753;-64
2021/09/19 12:23:43;;;;;;;2.37;2.17;;;24.30;93.80;;;;;;5075293;28;20518;-63
2021/09/19 12:26:32;;;;;;;2.53;2.33;;;24.40;93.80;;;;;;5075294;28;20417;-64
2021/09/19 12:29:03;;;;;;;2.47;2.30;;;24.30;93.50;;;;;;5062230;28;20485;-64
2021/09/19 12:31:38;;;;;;;2.60;2.40;;;24.30;93.50;;;;;;5075124;28;20398;-63
2021/09/19 12:34:06;;;;;;;2.60;2.40;;;24.30;93.40;;;;;;5075090;28;20449;-63
2021/09/19 12:36:48;;;;;;;2.53;2.33;;;24.30;93.20;;;;;;5074965;28;20414;-64
2021/09/19 12:39:15;;;;;;;2.40;2.20;;;24.20;93.30;;;;;;5074944;28;20835;-63
2021/09/19 12:41:45;;;;;;;2.80;2.60;;;24.20;93.80;;;;;;5056893;28;20415;-65
2021/09/19 12:44:17;;;;;;;2.50;2.30;;;24.20;93.40;;;;;;5074899;28;20441;-63
2021/09/19 12:46:57;;;;;;;2.90;2.50;;;24.10;93.50;;;;;;5074896;28;20462;-63